Time;durP1;ratioP1;P1;durP2;ratioP2;P2;SDS_P1;SDS_P2;PMS_P1;PMS_P2;Temp;Humidity;BMP_temperature;BMP_pressure;BME280_temperature;BME280_humidity;BME280_pressure;Samples;Min_cycle;Max_cycle;Signal;HPM_P1;HPM_P2
2022/01/12 00:01:15;;;;;;;13.18;4.70;;;;;;;2.10;76.59;102284.56;5007908;28;20527;-50
2022/01/12 00:03:43;;;;;;;12.57;4.85;;;;;;;2.09;76.79;102287.94;5005613;28;20065;-52
2022/01/12 00:06:11;;;;;;;10.05;3.67;;;;;;;2.07;77.53;102284.38;5004223;28;20042;-57
2022/01/12 00:08:38;;;;;;;12.48;3.47;;;;;;;2.03;77.94;102289.25;5004411;28;20469;-52
2022/01/12 00:11:05;;;;;;;9.77;4.25;;;;;;;2.01;77.74;102293.41;5006598;28;20601;-52
2022/01/12 00:13:34;;;;;;;14.25;5.00;;;;;;;2.00;77.48;102299.28;5009217;28;20513;-51
2022/01/12 00:16:03;;;;;;;9.88;3.40;;;;;;;1.99;77.26;102300.06;5006481;28;20413;-50
2022/01/12 00:18:31;;;;;;;12.27;4.13;;;;;;;1.97;77.43;102309.31;5009093;28;20057;-53
2022/01/12 00:20:59;;;;;;;19.38;4.88;;;;;;;1.95;78.09;102312.53;5003987;28;20061;-52
2022/01/12 00:23:25;;;;;;;24.58;5.18;;;;;;;1.93;77.42;102320.09;5008582;28;20049;-50
2022/01/12 00:34:14;;;;;;;9.30;4.18;;;;;;;1.90;77.75;102302.00;5005215;28;20042;-47
2022/01/12 00:36:41;;;;;;;12.30;4.78;;;;;;;1.89;77.25;102305.34;5004620;28;20038;-53
2022/01/12 00:39:08;;;;;;;13.50;5.32;;;;;;;1.89;77.61;102307.91;5005238;28;20046;-52
2022/01/12 00:41:38;;;;;;;15.02;5.35;;;;;;;1.86;77.44;102315.34;5008599;28;20053;-53
2022/01/12 00:44:08;;;;;;;17.80;6.22;;;;;;;1.83;78.52;102310.91;5005102;28;20046;-54
2022/01/12 00:46:36;;;;;;;15.35;5.95;;;;;;;1.83;78.74;102320.22;5007471;28;20048;-56
2022/01/12 00:49:03;;;;;;;15.48;5.35;;;;;;;1.83;77.84;102305.78;5003928;28;20054;-51
2022/01/12 00:51:32;;;;;;;12.00;6.43;;;;;;;1.83;78.03;102299.78;5005963;28;20076;-57
2022/01/12 00:54:00;;;;;;;15.50;7.05;;;;;;;1.80;78.41;102291.09;5006474;28;20077;-53
2022/01/12 00:56:27;;;;;;;18.40;4.97;;;;;;;1.79;78.49;102294.47;5008487;28;20037;-54
2022/01/12 00:58:54;;;;;;;14.20;6.20;;;;;;;1.77;78.49;102284.91;5004696;28;20046;-53
2022/01/12 01:01:22;;;;;;;14.48;5.28;;;;;;;1.76;78.27;102293.38;5003343;28;20054;-49
2022/01/12 01:03:49;;;;;;;17.88;6.97;;;;;;;1.72;77.50;102286.28;5004965;28;20054;-53
2022/01/12 01:06:17;;;;;;;10.70;5.85;;;;;;;1.72;78.72;102287.13;5005173;28;20076;-48
2022/01/12 01:08:44;;;;;;;13.07;5.60;;;;;;;1.71;78.22;102279.38;5004940;28;20104;-57
2022/01/12 01:11:12;;;;;;;14.50;5.90;;;;;;;1.70;78.55;102298.94;5004818;28;20109;-50
2022/01/12 01:13:48;;;;;;;11.98;5.75;;;;;;;1.71;79.32;102294.69;5007776;28;20069;-54
2022/01/12 01:16:22;;;;;;;19.65;6.20;;;;;;;1.72;78.82;102292.25;5005764;28;20736;-49
2022/01/12 01:27:08;;;;;;;17.77;7.63;;;;;;;1.70;78.89;102327.03;5007229;28;20049;-56
2022/01/12 01:29:35;;;;;;;23.83;7.07;;;;;;;1.70;80.64;102331.25;5004140;28;20096;-53
2022/01/12 01:32:02;;;;;;;21.55;8.50;;;;;;;1.71;80.63;102336.47;5000571;28;20050;-49
2022/01/12 01:34:31;;;;;;;17.70;6.68;;;;;;;1.73;79.42;102337.47;5004346;28;20382;-54
2022/01/12 01:36:57;;;;;;;18.50;8.90;;;;;;;1.74;80.25;102336.69;5004832;28;20077;-54
2022/01/12 01:39:26;;;;;;;21.08;8.93;;;;;;;1.76;81.19;102335.13;5007028;28;20510;-56
2022/01/12 01:41:59;;;;;;;25.48;9.02;;;;;;;1.78;81.20;102338.69;5007100;28;20468;-50
2022/01/12 01:55:32;;;;;;;18.38;7.35;;;;;;;1.70;80.02;102338.91;4999108;28;20056;-54
2022/01/12 01:58:00;;;;;;;24.60;8.25;;;;;;;1.66;81.63;102337.81;5003128;28;20050;-49
2022/01/12 02:00:28;;;;;;;32.08;9.07;;;;;;;1.65;80.54;102347.16;4995606;28;20054;-50
2022/01/12 02:02:57;;;;;;;23.50;9.25;;;;;;;1.65;80.47;102351.34;5003447;28;20482;-60
2022/01/12 02:05:25;;;;;;;24.77;9.10;;;;;;;1.64;80.02;102347.94;5000064;28;20097;-54
2022/01/12 02:07:51;;;;;;;26.40;9.27;;;;;;;1.65;80.93;102341.13;5003354;28;20110;-50
2022/01/12 02:10:19;;;;;;;22.70;9.00;;;;;;;1.61;79.97;102334.94;5003463;28;20050;-49
2022/01/12 02:12:46;;;;;;;26.83;9.50;;;;;;;1.59;79.77;102333.94;5005993;28;20054;-55
2022/01/12 02:15:17;;;;;;;37.00;9.13;;;;;;;1.57;80.21;102345.72;5002610;28;20095;-51
2022/01/12 02:18:03;;;;;;;28.98;7.85;;;;;;;1.54;79.74;102343.84;4998449;28;20437;-54
2022/01/12 02:35:34;;;;;;;51.58;11.35;;;;;;;1.39;78.80;102348.72;4989914;28;20050;-54
2022/01/12 02:40:47;;;;;;;33.88;9.68;;;;;;;1.35;79.77;102361.16;4999937;28;20046;-55
2022/01/12 02:43:26;;;;;;;19.02;9.15;;;;;;;1.34;79.44;102369.59;5005940;28;20104;-55
2022/01/12 02:51:32;;;;;;;18.25;8.70;;;;;;;1.29;79.95;102382.03;5005913;28;20394;-52
2022/01/12 02:53:59;;;;;;;21.38;9.32;;;;;;;1.27;80.15;102369.16;5004398;28;20046;-53
2022/01/12 02:56:29;;;;;;;16.88;8.10;;;;;;;1.25;80.09;102375.81;5008023;28;20081;-56
2022/01/12 02:58:58;;;;;;;12.52;5.90;;;;;;;1.24;79.83;102383.34;5002635;28;20452;-49
2022/01/12 03:01:57;;;;;;;14.90;7.97;;;;;;;1.22;79.20;102390.03;5006933;28;20049;-54
2022/01/12 03:04:13;;;;;;;15.00;8.52;;;;;;;1.19;80.21;102383.03;5017470;28;20068;-54
2022/01/12 03:06:42;;;;;;;14.15;8.55;;;;;;;1.16;79.85;102390.47;5002054;28;20050;-56
2022/01/12 03:09:10;;;;;;;18.13;8.63;;;;;;;1.14;79.40;102392.91;5005517;28;20061;-56
2022/01/12 03:11:38;;;;;;;14.25;6.20;;;;;;;1.12;80.23;102384.22;5003641;28;20453;-54
2022/01/12 03:14:05;;;;;;;18.08;8.48;;;;;;;1.11;79.64;102391.75;5002114;28;20050;-57
2022/01/12 03:16:32;;;;;;;14.68;8.30;;;;;;;1.11;80.03;102401.97;5006118;28;20050;-49
2022/01/12 03:19:01;;;;;;;19.42;8.15;;;;;;;1.10;79.57;102403.66;5003481;28;20057;-55
2022/01/12 03:21:30;;;;;;;15.15;6.75;;;;;;;1.10;80.07;102393.44;4999496;28;20568;-49
2022/01/12 03:23:58;;;;;;;20.52;8.07;;;;;;;1.12;80.43;102388.47;4986594;28;20053;-50
2022/01/12 03:26:28;;;;;;;16.95;7.70;;;;;;;1.13;79.44;102388.56;5006680;28;20096;-53
2022/01/12 03:28:56;;;;;;;13.00;6.88;;;;;;;1.13;80.52;102385.13;5002770;28;20108;-52
2022/01/12 03:31:26;;;;;;;18.10;8.05;;;;;;;1.13;80.12;102387.66;5002436;28;20545;-57
2022/01/12 03:33:59;;;;;;;18.15;7.53;;;;;;;1.13;79.22;102387.66;5007445;28;20100;-52
2022/01/12 03:36:39;;;;;;;18.55;8.73;;;;;;;1.12;79.65;102389.31;5003551;28;20050;-53
2022/01/12 03:39:10;;;;;;;13.93;7.68;;;;;;;1.11;80.53;102386.66;5002248;28;20486;-54
2022/01/12 03:41:37;;;;;;;26.25;7.65;;;;;;;1.13;79.81;102392.78;5005175;28;20049;-55
2022/01/12 03:44:07;;;;;;;14.85;7.97;;;;;;;1.13;80.57;102390.22;5005628;28;20112;-55
2022/01/12 03:46:40;;;;;;;18.42;7.55;;;;;;;1.14;80.16;102394.53;5005509;28;20136;-55
2022/01/12 03:49:06;;;;;;;19.38;8.10;;;;;;;1.14;80.83;102392.00;5004905;28;20061;-50
2022/01/12 03:51:33;;;;;;;20.38;9.63;;;;;;;1.12;80.52;102386.78;5009115;28;20046;-46
2022/01/12 03:54:00;;;;;;;14.35;8.07;;;;;;;1.12;80.31;102388.47;5005606;28;20050;-54
2022/01/12 03:56:26;;;;;;;18.75;8.15;;;;;;;1.11;80.82;102386.66;5007430;28;20054;-50
2022/01/12 03:58:53;;;;;;;19.95;8.52;;;;;;;1.11;79.46;102391.75;5002005;28;20046;-51
2022/01/12 04:01:20;;;;;;;16.08;8.23;;;;;;;1.10;80.52;102398.56;5005415;28;20046;-54
2022/01/12 04:03:58;;;;;;;24.92;8.02;;;;;;;1.10;79.36;102398.56;5005181;28;20494;-50
2022/01/12 04:09:32;;;;;;;17.40;8.07;;;;;;;1.04;80.57;102404.88;5002926;28;20151;-57
2022/01/12 04:11:58;;;;;;;16.77;7.65;;;;;;;0.99;79.55;102407.06;5000003;28;20085;-56
2022/01/12 04:14:25;;;;;;;22.38;8.35;;;;;;;0.95;80.20;102400.84;5003156;28;20751;-52
2022/01/12 04:16:52;;;;;;;16.05;7.85;;;;;;;0.93;80.55;102407.50;5003223;28;20131;-53
2022/01/12 04:19:18;;;;;;;14.23;9.13;;;;;;;0.90;79.66;102412.38;5006628;28;20468;-47
2022/01/12 04:21:46;;;;;;;17.45;8.13;;;;;;;0.87;79.21;102420.69;5005565;28;20046;-53
2022/01/12 04:24:13;;;;;;;17.40;8.68;;;;;;;0.80;80.00;102421.00;5005081;28;20046;-54
2022/01/12 04:26:40;;;;;;;18.70;8.52;;;;;;;0.73;79.33;102424.75;5005675;28;20049;-56
2022/01/12 04:29:07;;;;;;;15.77;8.43;;;;;;;0.70;80.04;102419.41;5005233;28;20092;-53
2022/01/12 04:31:35;;;;;;;24.10;7.85;;;;;;;0.70;79.70;102419.41;5008836;28;20054;-52
2022/01/12 04:34:02;;;;;;;13.93;6.75;;;;;;;0.71;79.55;102412.66;5008278;28;20478;-53
2022/01/12 04:36:29;;;;;;;16.13;6.82;;;;;;;0.71;80.30;102405.88;5008902;28;20061;-51
2022/01/12 04:38:56;;;;;;;18.10;6.15;;;;;;;0.73;79.79;102406.88;5002967;28;20441;-50
2022/01/12 04:41:24;;;;;;;14.18;6.95;;;;;;;0.75;79.64;102401.91;5005394;28;20053;-54
2022/01/12 04:43:52;;;;;;;17.15;8.07;;;;;;;0.77;79.81;102410.56;5007180;28;20060;-53
2022/01/12 04:46:27;;;;;;;15.30;6.72;;;;;;;0.78;80.36;102407.25;5006862;28;20504;-49
2022/01/12 04:49:07;;;;;;;20.40;6.97;;;;;;;0.81;80.88;102404.91;5004379;28;20150;-51
2022/01/12 04:51:35;;;;;;;17.35;6.10;;;;;;;0.82;80.32;102416.00;5003305;28;20057;-56
2022/01/12 04:54:03;;;;;;;10.55;6.15;;;;;;;0.81;80.37;102421.91;5004961;28;20112;-55
2022/01/12 04:56:30;;;;;;;12.43;6.63;;;;;;;0.75;79.50;102418.09;5024198;28;20050;-52
2022/01/12 04:58:57;;;;;;;11.88;5.78;;;;;;;0.70;80.07;102421.06;5008753;28;20100;-50
2022/01/12 05:01:27;;;;;;;14.65;7.95;;;;;;;0.64;79.25;102424.03;5005594;28;20054;-55
2022/01/12 05:06:49;;;;;;;17.30;7.38;;;;;;;0.57;79.37;102424.34;5003397;28;20046;-57
2022/01/12 05:15:02;;;;;;;17.90;7.03;;;;;;;0.48;79.85;102422.84;5002054;28;20054;-57
2022/01/12 05:17:29;;;;;;;15.25;7.20;;;;;;;0.46;79.63;102419.31;5006750;28;20046;-53
2022/01/12 05:19:56;;;;;;;12.13;6.25;;;;;;;0.46;80.17;102424.41;5004875;28;20119;-50
2022/01/12 05:22:23;;;;;;;14.85;6.25;;;;;;;0.47;80.11;102418.53;5005043;28;20049;-51
2022/01/12 05:24:49;;;;;;;14.60;7.15;;;;;;;0.48;79.86;102427.09;5004526;28;20057;-54
2022/01/12 05:27:25;;;;;;;14.68;7.07;;;;;;;0.49;79.81;102429.75;5004259;28;20100;-52
2022/01/12 05:29:52;;;;;;;17.23;7.57;;;;;;;0.52;80.50;102439.31;5010182;28;20122;-53
2022/01/12 05:32:19;;;;;;;15.88;7.43;;;;;;;0.53;79.82;102440.19;5004269;28;20105;-58
2022/01/12 05:34:45;;;;;;;17.88;7.70;;;;;;;0.54;79.85;102436.88;5002811;28;20104;-55
2022/01/12 05:37:12;;;;;;;11.23;6.13;;;;;;;0.54;80.36;102447.06;5002811;28;20818;-50
2022/01/12 05:39:39;;;;;;;15.75;7.38;;;;;;;0.54;79.98;102442.84;5003597;28;20053;-56
2022/01/12 05:42:25;;;;;;;13.85;7.03;;;;;;;0.56;80.82;102450.63;5007329;28;20050;-51
2022/01/12 05:44:51;;;;;;;13.88;6.32;;;;;;;0.54;79.42;102458.13;5007604;28;20047;-52
2022/01/12 05:47:34;;;;;;;14.50;6.90;;;;;;;0.50;80.42;102458.69;5007334;28;20054;-56
2022/01/12 05:50:01;;;;;;;16.95;6.93;;;;;;;0.47;79.63;102464.44;5005803;28;20049;-49
2022/01/12 05:52:27;;;;;;;12.40;5.80;;;;;;;0.48;80.13;102467.88;5002739;28;20060;-54
2022/01/12 05:54:54;;;;;;;15.88;5.97;;;;;;;0.48;79.88;102457.69;5006931;28;20049;-56
2022/01/12 05:57:20;;;;;;;12.88;7.55;;;;;;;0.48;80.31;102458.56;5006442;28;20050;-53
2022/01/12 05:59:47;;;;;;;13.90;5.13;;;;;;;0.48;79.60;102457.69;5006232;28;20653;-50
2022/01/12 06:02:14;;;;;;;13.43;5.88;;;;;;;0.46;79.61;102465.22;5007498;28;20049;-50
2022/01/12 06:04:41;;;;;;;13.18;6.43;;;;;;;0.45;79.93;102463.44;5005251;28;20049;-52
2022/01/12 06:07:08;;;;;;;15.30;6.82;;;;;;;0.42;79.65;102467.41;5002557;28;20136;-52
2022/01/12 06:09:35;;;;;;;12.98;5.60;;;;;;;0.35;79.75;102466.94;5004956;28;20675;-56
2022/01/12 06:12:02;;;;;;;13.70;7.18;;;;;;;0.30;79.58;102472.44;5006512;28;20046;-52
2022/01/12 06:14:29;;;;;;;15.48;6.85;;;;;;;0.24;79.95;102473.72;5003746;28;20092;-52
2022/01/12 06:16:56;;;;;;;12.60;5.03;;;;;;;0.18;79.37;102478.34;5008583;28;20670;-56
2022/01/12 06:19:23;;;;;;;15.93;6.97;;;;;;;0.13;79.76;102474.53;5003860;28;20045;-57
2022/01/12 06:21:50;;;;;;;11.10;6.32;;;;;;;0.05;79.25;102475.59;5000976;28;20100;-54
2022/01/12 06:24:16;;;;;;;12.07;6.53;;;;;;;-0.03;79.37;102480.94;5008219;28;20046;-49
2022/01/12 06:26:44;;;;;;;8.85;4.50;;;;;;;-0.08;79.62;102492.44;5005885;28;20424;-51
2022/01/12 06:29:24;;;;;;;11.65;5.03;;;;;;;-0.09;79.77;102488.13;5002397;28;20429;-50
2022/01/12 06:31:54;;;;;;;14.07;6.90;;;;;;;-0.13;79.92;102491.19;4999243;28;20061;-49
2022/01/12 06:34:21;;;;;;;13.80;6.65;;;;;;;-0.16;79.51;102496.03;5005365;28;20046;-52
2022/01/12 06:36:48;;;;;;;10.20;5.97;;;;;;;-0.17;79.64;102496.81;4999582;28;20111;-48
2022/01/12 06:39:20;;;;;;;13.65;6.38;;;;;;;-0.20;79.71;102502.53;5003169;28;20517;-53
2022/01/12 06:41:47;;;;;;;10.70;5.78;;;;;;;-0.22;80.08;102501.53;4999736;28;20622;-51
2022/01/12 06:44:16;;;;;;;14.98;5.65;;;;;;;-0.20;79.78;102514.38;5005090;28;20046;-48
2022/01/12 06:46:44;;;;;;;13.98;6.63;;;;;;;-0.19;80.35;102503.44;5003090;28;20058;-56
2022/01/12 06:49:11;;;;;;;9.43;5.90;;;;;;;-0.15;80.14;102510.53;4999347;28;21793;-54
2022/01/12 06:51:39;;;;;;;14.38;5.75;;;;;;;-0.11;80.49;102512.56;4998366;28;20046;-51
2022/01/12 06:54:06;;;;;;;9.55;5.30;;;;;;;-0.09;80.34;102508.50;5002819;28;20513;-53
2022/01/12 06:56:33;;;;;;;9.00;5.15;;;;;;;-0.06;80.31;102512.94;5001669;28;20057;-49
2022/01/12 06:59:00;;;;;;;9.15;5.72;;;;;;;-0.06;79.92;102516.41;5001281;28;20057;-50
2022/01/12 07:01:27;;;;;;;8.25;5.20;;;;;;;-0.05;79.82;102505.44;5002075;28;20092;-55
2022/01/12 07:03:54;;;;;;;10.55;4.97;;;;;;;-0.06;80.19;102511.31;4998859;28;20062;-54
2022/01/12 07:06:21;;;;;;;8.90;5.40;;;;;;;-0.05;80.44;102519.81;5003981;28;20046;-50
2022/01/12 07:08:47;;;;;;;13.82;5.30;;;;;;;-0.06;79.55;102518.94;5001939;28;20046;-51
2022/01/12 07:11:14;;;;;;;11.50;5.45;;;;;;;-0.03;80.00;102529.38;5003867;28;20104;-52
2022/01/12 07:13:41;;;;;;;9.70;6.07;;;;;;;-0.04;79.63;102537.78;5002283;28;20120;-48
2022/01/12 07:16:07;;;;;;;12.32;6.43;;;;;;;-0.08;79.38;102545.06;5003911;28;20050;-48
2022/01/12 07:18:34;;;;;;;14.95;7.10;;;;;;;-0.14;79.22;102550.53;5004743;28;20053;-57
2022/01/12 07:21:01;;;;;;;17.27;9.90;;;;;;;-0.18;79.23;102556.16;5003521;28;20081;-54
2022/01/12 07:23:27;;;;;;;15.10;7.38;;;;;;;-0.22;79.51;102552.47;5008827;28;20049;-55
2022/01/12 07:25:55;;;;;;;12.52;7.40;;;;;;;-0.21;79.66;102563.56;5007312;28;20050;-53
2022/01/12 07:28:22;;;;;;;13.85;7.05;;;;;;;-0.20;80.15;102570.44;5009611;28;20096;-54
2022/01/12 07:30:49;;;;;;;8.90;5.10;;;;;;;-0.20;79.64;102570.44;5005883;28;20638;-49
2022/01/12 07:33:16;;;;;;;11.85;6.45;;;;;;;-0.19;80.13;102573.09;5008330;28;20053;-54
2022/01/12 07:35:43;;;;;;;10.25;6.55;;;;;;;-0.19;79.45;102573.09;5003332;28;20053;-50
2022/01/12 07:38:10;;;;;;;16.42;8.55;;;;;;;-0.18;79.91;102579.06;5006064;28;20399;-50
2022/01/12 07:40:37;;;;;;;14.75;7.35;;;;;;;-0.18;80.00;102579.06;5002149;28;20485;-48
2022/01/12 07:43:05;;;;;;;15.95;7.50;;;;;;;-0.17;79.96;102579.19;5002152;28;20053;-52
2022/01/12 07:45:33;;;;;;;22.45;8.70;;;;;;;-0.17;79.67;102580.88;5005101;28;20065;-55
2022/01/12 07:48:00;;;;;;;18.98;8.80;;;;;;;-0.19;80.12;102582.41;5005612;28;20049;-49
2022/01/12 07:50:27;;;;;;;22.35;11.73;;;;;;;-0.20;79.71;102583.16;5003198;28;20054;-54
2022/01/12 07:52:53;;;;;;;51.03;20.20;;;;;;;-0.22;79.50;102580.50;5004453;28;20403;-50
2022/01/12 07:55:22;;;;;;;68.40;25.88;;;;;;;-0.23;79.59;102585.47;5005307;28;20430;-48
2022/01/12 07:57:50;;;;;;;18.25;9.35;;;;;;;-0.23;79.57;102590.56;5006805;28;20054;-53
2022/01/12 08:00:20;;;;;;;23.25;11.32;;;;;;;-0.24;79.46;102601.50;5004763;28;20104;-52
2022/01/12 08:02:49;;;;;;;29.55;14.70;;;;;;;-0.27;79.30;102595.38;5001637;28;20050;-56
2022/01/12 08:05:18;;;;;;;20.60;9.13;;;;;;;-0.26;79.73;102606.47;5004021;28;20046;-49
2022/01/12 08:07:45;;;;;;;22.95;14.02;;;;;;;-0.28;79.57;102595.25;5000716;28;20457;-50
2022/01/12 08:10:12;;;;;;;16.60;6.53;;;;;;;-0.28;79.97;102606.34;5004606;28;20077;-53
2022/01/12 08:12:38;;;;;;;12.10;5.35;;;;;;;-0.29;79.82;102609.66;5002044;28;20960;-52
2022/01/12 08:15:07;;;;;;;13.05;7.43;;;;;;;-0.31;79.84;102603.53;5003369;28;20054;-51
2022/01/12 08:17:35;;;;;;;10.05;5.47;;;;;;;-0.31;79.88;102603.53;4997141;28;20050;-51
2022/01/12 08:20:04;;;;;;;11.05;6.68;;;;;;;-0.29;80.08;102606.22;5005791;28;20042;-52
2022/01/12 08:22:31;;;;;;;11.10;6.20;;;;;;;-0.26;79.53;102604.81;5002918;28;20073;-50
2022/01/12 08:24:58;;;;;;;9.05;5.72;;;;;;;-0.21;80.17;102609.41;4999736;28;20049;-51
2022/01/12 08:27:24;;;;;;;10.20;5.53;;;;;;;-0.16;79.46;102608.13;5003165;28;20047;-58
2022/01/12 08:29:58;;;;;;;25.92;9.82;;;;;;;-0.14;79.63;102621.88;5004555;28;20557;-55
2022/01/12 08:32:25;;;;;;;30.42;11.70;;;;;;;-0.08;80.39;102626.59;5001931;28;20049;-58
2022/01/12 08:34:51;;;;;;;13.63;6.97;;;;;;;0.07;80.29;102626.97;5003506;28;20091;-54
2022/01/12 08:37:18;;;;;;;16.88;7.20;;;;;;;0.32;80.40;102629.88;5005609;28;20577;-48
2022/01/12 08:39:45;;;;;;;13.82;7.22;;;;;;;0.69;80.59;102636.13;5004791;28;20104;-47
2022/01/12 08:42:12;;;;;;;18.80;8.55;;;;;;;1.00;80.63;102639.44;5006409;28;20097;-52
2022/01/12 08:44:43;;;;;;;16.38;8.95;;;;;;;1.13;79.74;102645.50;5000749;28;20053;-58
2022/01/12 08:47:10;;;;;;;15.82;8.35;;;;;;;1.12;78.38;102644.59;5006354;28;20489;-58
2022/01/12 08:49:37;;;;;;;17.85;8.57;;;;;;;1.10;78.59;102650.38;5005579;28;20053;-51
2022/01/12 08:52:05;;;;;;;16.85;8.35;;;;;;;1.37;78.63;102653.28;5005843;28;20129;-54
2022/01/12 08:54:31;;;;;;;17.80;9.73;;;;;;;2.07;78.58;102660.19;5005501;28;20111;-51
2022/01/12 08:56:58;;;;;;;17.92;8.38;;;;;;;2.88;78.04;102658.31;5003521;28;20062;-54
2022/01/12 08:59:25;;;;;;;14.65;7.47;;;;;;;3.60;78.14;102659.00;5000096;28;20050;-57
2022/01/12 09:01:51;;;;;;;16.50;6.88;;;;;;;4.08;75.89;102657.06;5002227;28;20081;-54
2022/01/12 09:04:18;;;;;;;15.50;7.55;;;;;;;4.14;74.11;102658.25;5003722;28;20050;-50
2022/01/12 09:06:49;;;;;;;14.25;7.97;;;;;;;4.11;74.21;102654.69;5000786;28;20046;-56
2022/01/12 09:09:16;;;;;;;15.82;7.97;;;;;;;4.39;75.21;102662.44;5001841;28;20046;-48
2022/01/12 09:11:43;;;;;;;12.93;6.95;;;;;;;4.93;75.30;102665.84;5000738;28;20065;-55
2022/01/12 09:14:09;;;;;;;21.20;7.60;;;;;;;5.53;74.22;102662.63;5001548;28;20081;-52
2022/01/12 09:16:36;;;;;;;13.18;7.45;;;;;;;6.17;73.82;102676.66;5001402;28;20054;-54
2022/01/12 09:19:03;;;;;;;12.75;7.78;;;;;;;6.92;72.84;102676.53;5003219;28;20105;-55
2022/01/12 09:21:29;;;;;;;12.35;7.43;;;;;;;7.67;71.51;102680.44;4999804;28;20053;-55
2022/01/12 09:23:56;;;;;;;13.93;7.35;;;;;;;8.34;71.55;102685.47;5000552;28;20524;-53
2022/01/12 09:26:23;;;;;;;12.20;6.82;;;;;;;8.77;68.85;102680.63;5000479;28;20108;-52
2022/01/12 09:28:50;;;;;;;16.30;7.65;;;;;;;8.89;68.83;102681.22;4999466;28;20060;-52
2022/01/12 09:31:17;;;;;;;13.02;7.55;;;;;;;9.01;69.38;102691.25;5000712;28;20048;-51
2022/01/12 09:33:48;;;;;;;13.50;6.97;;;;;;;9.31;68.69;102689.97;4998197;28;20125;-52
2022/01/12 09:36:15;;;;;;;16.15;7.18;;;;;;;9.85;68.76;102678.53;5005293;28;20142;-53
2022/01/12 09:38:43;;;;;;;15.32;7.15;;;;;;;10.39;67.45;102672.09;4998457;28;20054;-51
2022/01/12 09:41:10;;;;;;;16.05;7.55;;;;;;;11.02;66.74;102675.41;5002157;28;20054;-54
2022/01/12 09:43:39;;;;;;;35.78;11.93;;;;;;;11.67;65.91;102676.88;4996285;28;20051;-53
2022/01/12 09:46:08;;;;;;;66.53;21.00;;;;;;;12.34;65.58;102677.41;4999997;28;20068;-51
2022/01/12 09:48:36;;;;;;;89.45;28.70;;;;;;;12.88;63.63;102673.81;5003586;28;20046;-51
2022/01/12 09:51:07;;;;;;;113.00;34.55;;;;;;;13.29;61.98;102676.75;4998844;28;20049;-56
2022/01/12 09:53:37;;;;;;;34.17;16.33;;;;;;;13.67;60.39;102683.88;4997489;28;20073;-52
2022/01/12 09:56:08;;;;;;;;;;;;;;;13.99;60.23;102682.97;4999396;28;20569;-53
2022/01/12 09:58:35;;;;;;;28.35;16.25;;;;;;;14.53;59.94;102688.59;5001622;28;20010;-55
2022/01/12 10:01:04;;;;;;;18.88;11.13;;;;;;;14.98;58.27;102686.13;4998396;28;20050;-52
2022/01/12 10:03:32;;;;;;;25.38;14.63;;;;;;;15.38;56.60;102686.94;5001491;28;20135;-54
2022/01/12 10:05:58;;;;;;;20.50;13.15;;;;;;;15.74;56.15;102673.66;4996949;28;20721;-50
2022/01/12 10:08:25;;;;;;;15.80;10.40;;;;;;;16.11;55.57;102658.63;5000125;28;20096;-53
2022/01/12 10:11:03;;;;;;;15.98;9.90;;;;;;;16.38;54.29;102662.50;5002622;28;20104;-51
2022/01/12 10:13:31;;;;;;;17.88;9.45;;;;;;;16.86;54.17;102675.41;5002794;28;20054;-53
2022/01/12 10:16:17;;;;;;;12.13;7.07;;;;;;;17.15;50.64;102674.91;5006101;28;20042;-51
2022/01/12 10:18:47;;;;;;;14.70;8.85;;;;;;;17.37;51.23;102679.50;4995254;28;20053;-52
2022/01/12 10:21:35;;;;;;;14.00;9.30;;;;;;;17.39;49.46;102681.28;5000027;28;20061;-52
2022/01/12 10:24:06;;;;;;;15.25;8.07;;;;;;;17.69;49.34;102681.56;4998629;28;20054;-52
2022/01/12 10:26:37;;;;;;;12.68;7.43;;;;;;;17.79;47.88;102679.91;4998461;28;20050;-53
2022/01/12 10:29:08;;;;;;;13.20;8.05;;;;;;;18.03;48.19;102678.41;4997204;28;20044;-50
2022/01/12 10:31:46;;;;;;;12.50;8.43;;;;;;;18.17;47.56;102676.78;4997572;28;20069;-57
2022/01/12 10:34:20;;;;;;;12.55;10.45;;;;;;;18.40;46.30;102668.19;5003242;28;20101;-53
2022/01/12 10:36:48;;;;;;;11.45;8.10;;;;;;;18.61;46.44;102659.56;4997547;28;20053;-50
2022/01/12 10:39:17;;;;;;;14.75;10.95;;;;;;;18.73;45.76;102661.38;5000277;28;20552;-49
2022/01/12 10:42:02;;;;;;;19.70;12.93;;;;;;;18.89;45.71;102662.31;5000346;28;20057;-56
2022/01/12 10:44:32;;;;;;;13.05;9.98;;;;;;;19.15;44.56;102668.56;5000484;28;20054;-53
2022/01/12 10:47:21;;;;;;;12.18;9.02;;;;;;;19.05;44.03;102661.50;4998583;28;20050;-56
2022/01/12 10:50:01;;;;;;;13.38;9.57;;;;;;;18.78;43.60;102658.75;5001276;28;20057;-56
2022/01/12 10:52:32;;;;;;;10.98;7.97;;;;;;;18.39;43.01;102650.69;5007272;28;20061;-54
2022/01/12 10:55:03;;;;;;;10.60;8.27;;;;;;;17.92;42.93;102654.69;5003292;28;20062;-52
2022/01/12 10:57:33;;;;;;;9.70;7.57;;;;;;;17.13;43.27;102645.22;5005194;28;21259;-56
2022/01/12 11:00:18;;;;;;;11.07;7.57;;;;;;;16.08;43.92;102637.69;5002674;28;20809;-54
2022/01/12 11:02:48;;;;;;;14.27;8.57;;;;;;;15.22;46.12;102636.16;5003003;28;20644;-54
2022/01/12 11:05:17;;;;;;;13.80;10.23;;;;;;;14.61;47.15;102634.00;5006170;28;20046;-61
2022/01/12 11:07:44;;;;;;;12.77;9.13;;;;;;;14.28;48.03;102628.06;5002757;28;20085;-55
2022/01/12 11:10:12;;;;;;;10.70;6.95;;;;;;;13.92;48.83;102626.34;5000976;28;20050;-56
2022/01/12 11:12:44;;;;;;;14.48;7.75;;;;;;;13.41;48.71;102618.06;5004158;28;20108;-57
2022/01/12 11:15:15;;;;;;;12.82;7.80;;;;;;;12.92;49.76;102621.06;5004623;28;20057;-60
2022/01/12 11:17:45;;;;;;;15.88;7.05;;;;;;;12.42;50.09;102616.97;5001667;28;20776;-56
2022/01/12 11:20:16;;;;;;;;;;;;;;;11.73;50.43;102625.16;5005311;28;20064;-56
2022/01/12 11:22:58;;;;;;;11.40;5.68;;;;;;;11.28;52.74;102606.31;5003041;28;20408;-58
2022/01/12 11:25:30;;;;;;;10.15;5.75;;;;;;;10.93;53.26;102598.16;5001495;28;20474;-50
2022/01/12 11:28:19;;;;;;;9.80;5.80;;;;;;;10.45;52.93;102599.84;5003382;28;20046;-56
2022/01/12 11:31:03;;;;;;;13.55;7.22;;;;;;;10.28;54.67;102600.03;5001527;28;20076;-60
2022/01/12 11:33:40;;;;;;;12.18;7.15;;;;;;;10.09;54.36;102616.53;5003355;28;20116;-55
2022/01/12 11:36:34;;;;;;;15.55;8.20;;;;;;;9.77;55.73;102606.59;5001545;28;20057;-55
2022/01/12 11:39:07;;;;;;;16.02;7.60;;;;;;;9.72;57.35;102599.47;4997266;28;20054;-57
2022/01/12 11:41:36;;;;;;;14.05;6.50;;;;;;;9.66;57.41;102605.25;4998830;28;20050;-55
2022/01/12 11:44:08;;;;;;;11.50;5.95;;;;;;;9.70;57.94;102596.84;4999018;28;20116;-56
2022/01/12 11:46:56;;;;;;;11.15;4.85;;;;;;;9.74;57.93;102603.91;5001952;28;20393;-56
2022/01/12 11:49:35;;;;;;;9.68;5.95;;;;;;;9.92;57.41;102597.72;4999351;28;20046;-55
2022/01/12 11:52:15;;;;;;;12.90;6.15;;;;;;;10.05;57.49;102604.28;5001084;28;20053;-51
2022/01/12 11:54:47;;;;;;;17.52;7.13;;;;;;;10.19;57.16;102607.41;5002260;28;20058;-56
2022/01/12 11:57:19;;;;;;;25.67;8.70;;;;;;;10.29;57.37;102604.38;5001901;28;20054;-57
2022/01/12 11:59:54;;;;;;;30.25;9.60;;;;;;;10.33;57.36;102596.75;5003741;28;20037;-55
2022/01/12 12:02:34;;;;;;;46.35;12.63;;;;;;;10.18;57.03;102590.13;5000641;28;20054;-56
2022/01/12 12:05:07;;;;;;;38.50;12.77;;;;;;;10.02;57.15;102589.50;5001628;28;20398;-54
2022/01/12 12:07:52;;;;;;;29.33;9.95;;;;;;;9.81;57.66;102588.63;4998579;28;20073;-55
2022/01/12 12:10:23;;;;;;;19.70;5.82;;;;;;;9.70;57.71;102599.44;5002160;28;20476;-57
2022/01/12 12:12:51;;;;;;;49.80;14.63;;;;;;;9.58;57.78;102593.72;5003845;28;20054;-56
2022/01/12 12:15:19;;;;;;;49.35;14.20;;;;;;;9.45;58.03;102600.06;5000193;28;20054;-57
2022/01/12 12:17:46;;;;;;;25.55;9.80;;;;;;;9.26;58.08;102600.16;5002265;28;20121;-58
2022/01/12 12:20:16;;;;;;;29.77;10.20;;;;;;;9.12;58.30;102606.44;4997781;28;20513;-58
2022/01/12 12:22:46;;;;;;;18.48;8.07;;;;;;;8.99;59.41;102611.03;5001937;28;20046;-57
2022/01/12 12:25:16;;;;;;;20.73;8.90;;;;;;;8.97;59.10;102623.00;5001057;28;20046;-56
2022/01/12 12:27:45;;;;;;;24.30;9.63;;;;;;;8.94;59.34;102616.81;5006376;28;20050;-56
2022/01/12 12:30:15;;;;;;;33.67;12.07;;;;;;;8.79;59.51;102622.16;5003095;28;20050;-58
2022/01/12 12:32:45;;;;;;;20.73;8.63;;;;;;;8.63;60.56;102624.03;5000635;28;20058;-54
2022/01/12 12:35:15;;;;;;;16.15;7.25;;;;;;;8.47;60.82;102619.81;5001596;28;20124;-55